sensor_id;sensor_type;location;lat;lon;timestamp;P1;durP1;ratioP1;P2;durP2;ratioP2
68050;SDS011;54839;51.364;7.246;2023-07-13T00:01:11;4.50;;;1.97;;
68050;SDS011;54839;51.364;7.246;2023-07-13T00:03:37;11.13;;;2.10;;
68050;SDS011;54839;51.364;7.246;2023-07-13T00:06:06;3.47;;;1.77;;
68050;SDS011;54839;51.364;7.246;2023-07-13T00:08:33;5.43;;;2.17;;
68050;SDS011;54839;51.364;7.246;2023-07-13T00:11:02;2.13;;;1.47;;
68050;SDS011;54839;51.364;7.246;2023-07-13T00:13:29;3.70;;;2.17;;
68050;SDS011;54839;51.364;7.246;2023-07-13T00:15:56;5.10;;;2.00;;
68050;SDS011;54839;51.364;7.246;2023-07-13T00:18:23;3.57;;;1.53;;
68050;SDS011;54839;51.364;7.246;2023-07-13T00:20:48;5.00;;;2.03;;
68050;SDS011;54839;51.364;7.246;2023-07-13T00:23:14;8.87;;;2.17;;
68050;SDS011;54839;51.364;7.246;2023-07-13T00:25:42;2.80;;;1.67;;
68050;SDS011;54839;51.364;7.246;2023-07-13T00:28:07;8.10;;;1.97;;
68050;SDS011;54839;51.364;7.246;2023-07-13T00:30:33;6.00;;;1.60;;
68050;SDS011;54839;51.364;7.246;2023-07-13T00:32:58;6.57;;;2.43;;
68050;SDS011;54839;51.364;7.246;2023-07-13T00:35:26;2.57;;;1.43;;
68050;SDS011;54839;51.364;7.246;2023-07-13T00:37:52;8.13;;;2.10;;
68050;SDS011;54839;51.364;7.246;2023-07-13T00:40:17;3.97;;;1.80;;
68050;SDS011;54839;51.364;7.246;2023-07-13T00:42:43;5.13;;;2.13;;
68050;SDS011;54839;51.364;7.246;2023-07-13T00:47:37;4.30;;;1.70;;
68050;SDS011;54839;51.364;7.246;2023-07-13T00:50:03;6.27;;;2.90;;
68050;SDS011;54839;51.364;7.246;2023-07-13T00:52:33;4.33;;;1.80;;
68050;SDS011;54839;51.364;7.246;2023-07-13T00:55:02;2.73;;;1.70;;
68050;SDS011;54839;51.364;7.246;2023-07-13T00:57:28;4.07;;;1.67;;
68050;SDS011;54839;51.364;7.246;2023-07-13T00:59:57;4.20;;;2.13;;
68050;SDS011;54839;51.364;7.246;2023-07-13T01:02:31;7.50;;;1.67;;
68050;SDS011;54839;51.364;7.246;2023-07-13T01:04:58;3.33;;;1.60;;
68050;SDS011;54839;51.364;7.246;2023-07-13T01:07:23;3.10;;;1.53;;
68050;SDS011;54839;51.364;7.246;2023-07-13T01:09:49;3.90;;;1.90;;
68050;SDS011;54839;51.364;7.246;2023-07-13T01:12:14;4.77;;;1.80;;
68050;SDS011;54839;51.364;7.246;2023-07-13T01:14:40;6.90;;;1.83;;
68050;SDS011;54839;51.364;7.246;2023-07-13T01:17:07;6.07;;;2.20;;
68050;SDS011;54839;51.364;7.246;2023-07-13T01:19:36;5.20;;;1.40;;
68050;SDS011;54839;51.364;7.246;2023-07-13T01:22:05;5.73;;;1.80;;
68050;SDS011;54839;51.364;7.246;2023-07-13T01:24:34;3.00;;;1.40;;
68050;SDS011;54839;51.364;7.246;2023-07-13T01:27:04;3.40;;;1.70;;
68050;SDS011;54839;51.364;7.246;2023-07-13T01:29:32;2.33;;;1.30;;
68050;SDS011;54839;51.364;7.246;2023-07-13T01:31:58;4.50;;;2.23;;
68050;SDS011;54839;51.364;7.246;2023-07-13T01:34:25;6.07;;;1.60;;
68050;SDS011;54839;51.364;7.246;2023-07-13T01:36:51;2.47;;;1.30;;
68050;SDS011;54839;51.364;7.246;2023-07-13T01:39:18;2.97;;;1.77;;
68050;SDS011;54839;51.364;7.246;2023-07-13T01:41:47;5.33;;;1.63;;
68050;SDS011;54839;51.364;7.246;2023-07-13T01:44:13;4.57;;;1.87;;
68050;SDS011;54839;51.364;7.246;2023-07-13T01:46:39;6.83;;;2.27;;
68050;SDS011;54839;51.364;7.246;2023-07-13T01:49:05;5.13;;;2.50;;
68050;SDS011;54839;51.364;7.246;2023-07-13T01:51:30;3.20;;;1.60;;
68050;SDS011;54839;51.364;7.246;2023-07-13T01:53:56;5.10;;;2.17;;
68050;SDS011;54839;51.364;7.246;2023-07-13T01:56:21;4.00;;;1.63;;
68050;SDS011;54839;51.364;7.246;2023-07-13T01:58:47;7.40;;;1.87;;
68050;SDS011;54839;51.364;7.246;2023-07-13T02:01:13;3.30;;;1.53;;
68050;SDS011;54839;51.364;7.246;2023-07-13T02:03:38;4.57;;;1.93;;
68050;SDS011;54839;51.364;7.246;2023-07-13T02:06:04;9.20;;;2.50;;
68050;SDS011;54839;51.364;7.246;2023-07-13T02:08:30;3.43;;;1.90;;
68050;SDS011;54839;51.364;7.246;2023-07-13T02:10:57;4.20;;;1.80;;
68050;SDS011;54839;51.364;7.246;2023-07-13T02:13:22;3.10;;;2.20;;
68050;SDS011;54839;51.364;7.246;2023-07-13T02:15:50;1.97;;;1.40;;
68050;SDS011;54839;51.364;7.246;2023-07-13T02:18:16;6.33;;;3.20;;
68050;SDS011;54839;51.364;7.246;2023-07-13T02:20:42;2.70;;;1.90;;
68050;SDS011;54839;51.364;7.246;2023-07-13T02:23:07;1.87;;;1.70;;
68050;SDS011;54839;51.364;7.246;2023-07-13T02:25:33;5.90;;;2.00;;
68050;SDS011;54839;51.364;7.246;2023-07-13T02:27:58;6.93;;;2.17;;
68050;SDS011;54839;51.364;7.246;2023-07-13T02:30:24;3.63;;;1.60;;
68050;SDS011;54839;51.364;7.246;2023-07-13T02:32:50;7.13;;;2.30;;
68050;SDS011;54839;51.364;7.246;2023-07-13T02:35:15;4.77;;;2.07;;
68050;SDS011;54839;51.364;7.246;2023-07-13T02:37:41;4.10;;;1.77;;
68050;SDS011;54839;51.364;7.246;2023-07-13T02:40:07;3.90;;;1.60;;
68050;SDS011;54839;51.364;7.246;2023-07-13T02:42:33;5.77;;;2.30;;
68050;SDS011;54839;51.364;7.246;2023-07-13T02:44:59;4.90;;;2.13;;
68050;SDS011;54839;51.364;7.246;2023-07-13T02:47:25;2.97;;;1.90;;
68050;SDS011;54839;51.364;7.246;2023-07-13T02:49:51;6.30;;;2.00;;
68050;SDS011;54839;51.364;7.246;2023-07-13T02:52:17;5.37;;;2.23;;
68050;SDS011;54839;51.364;7.246;2023-07-13T02:54:43;7.43;;;2.40;;
68050;SDS011;54839;51.364;7.246;2023-07-13T02:57:08;7.30;;;1.87;;
68050;SDS011;54839;51.364;7.246;2023-07-13T02:59:34;6.20;;;1.90;;
68050;SDS011;54839;51.364;7.246;2023-07-13T03:02:00;4.27;;;2.00;;
68050;SDS011;54839;51.364;7.246;2023-07-13T03:04:27;4.27;;;1.73;;
68050;SDS011;54839;51.364;7.246;2023-07-13T03:06:52;6.57;;;2.30;;
68050;SDS011;54839;51.364;7.246;2023-07-13T03:09:22;4.87;;;2.10;;
68050;SDS011;54839;51.364;7.246;2023-07-13T03:11:48;2.70;;;2.00;;
68050;SDS011;54839;51.364;7.246;2023-07-13T03:14:13;4.10;;;1.60;;
68050;SDS011;54839;51.364;7.246;2023-07-13T03:16:39;2.10;;;1.60;;
68050;SDS011;54839;51.364;7.246;2023-07-13T03:19:05;4.50;;;1.60;;
68050;SDS011;54839;51.364;7.246;2023-07-13T03:21:30;2.80;;;1.63;;
68050;SDS011;54839;51.364;7.246;2023-07-13T03:23:56;3.30;;;1.40;;
68050;SDS011;54839;51.364;7.246;2023-07-13T03:26:21;7.40;;;2.00;;
68050;SDS011;54839;51.364;7.246;2023-07-13T03:28:47;3.97;;;1.57;;
68050;SDS011;54839;51.364;7.246;2023-07-13T03:31:14;3.20;;;2.10;;
68050;SDS011;54839;51.364;7.246;2023-07-13T03:33:42;9.40;;;2.03;;
68050;SDS011;54839;51.364;7.246;2023-07-13T03:36:14;11.13;;;3.50;;
68050;SDS011;54839;51.364;7.246;2023-07-13T03:38:49;3.43;;;1.67;;
68050;SDS011;54839;51.364;7.246;2023-07-13T03:41:16;4.63;;;1.70;;
68050;SDS011;54839;51.364;7.246;2023-07-13T03:43:42;11.73;;;2.70;;
68050;SDS011;54839;51.364;7.246;2023-07-13T03:46:08;4.27;;;2.10;;
68050;SDS011;54839;51.364;7.246;2023-07-13T03:48:34;7.90;;;2.30;;
68050;SDS011;54839;51.364;7.246;2023-07-13T03:51:00;5.67;;;2.00;;
68050;SDS011;54839;51.364;7.246;2023-07-13T03:53:26;2.40;;;1.93;;
68050;SDS011;54839;51.364;7.246;2023-07-13T03:55:51;7.97;;;2.00;;
68050;SDS011;54839;51.364;7.246;2023-07-13T03:58:25;7.43;;;2.50;;
68050;SDS011;54839;51.364;7.246;2023-07-13T04:00:52;3.63;;;2.20;;
68050;SDS011;54839;51.364;7.246;2023-07-13T04:03:18;6.20;;;2.23;;
68050;SDS011;54839;51.364;7.246;2023-07-13T04:05:44;8.80;;;2.20;;
68050;SDS011;54839;51.364;7.246;2023-07-13T04:08:09;1.80;;;1.47;;
68050;SDS011;54839;51.364;7.246;2023-07-13T04:10:35;5.60;;;2.03;;
68050;SDS011;54839;51.364;7.246;2023-07-13T04:13:00;3.97;;;1.83;;
68050;SDS011;54839;51.364;7.246;2023-07-13T04:15:28;3.37;;;2.07;;
68050;SDS011;54839;51.364;7.246;2023-07-13T04:17:55;4.40;;;1.90;;
68050;SDS011;54839;51.364;7.246;2023-07-13T04:20:20;10.13;;;1.90;;
68050;SDS011;54839;51.364;7.246;2023-07-13T04:22:46;6.53;;;1.63;;
68050;SDS011;54839;51.364;7.246;2023-07-13T04:25:12;8.07;;;2.77;;
68050;SDS011;54839;51.364;7.246;2023-07-13T04:27:37;6.03;;;1.63;;
68050;SDS011;54839;51.364;7.246;2023-07-13T04:30:04;6.43;;;2.60;;
68050;SDS011;54839;51.364;7.246;2023-07-13T04:32:31;6.20;;;2.30;;
68050;SDS011;54839;51.364;7.246;2023-07-13T04:34:57;3.43;;;2.07;;
68050;SDS011;54839;51.364;7.246;2023-07-13T04:37:24;6.90;;;2.80;;
68050;SDS011;54839;51.364;7.246;2023-07-13T04:39:50;4.53;;;2.40;;
68050;SDS011;54839;51.364;7.246;2023-07-13T04:42:15;5.83;;;2.27;;
68050;SDS011;54839;51.364;7.246;2023-07-13T04:44:41;5.30;;;2.70;;
68050;SDS011;54839;51.364;7.246;2023-07-13T04:47:07;1.90;;;1.57;;
68050;SDS011;54839;51.364;7.246;2023-07-13T04:49:32;7.40;;;2.90;;
68050;SDS011;54839;51.364;7.246;2023-07-13T04:51:58;3.80;;;1.80;;
68050;SDS011;54839;51.364;7.246;2023-07-13T04:54:23;10.17;;;2.50;;
68050;SDS011;54839;51.364;7.246;2023-07-13T04:56:49;6.00;;;2.33;;
68050;SDS011;54839;51.364;7.246;2023-07-13T04:59:14;5.27;;;2.43;;
68050;SDS011;54839;51.364;7.246;2023-07-13T05:01:40;5.20;;;2.07;;
68050;SDS011;54839;51.364;7.246;2023-07-13T05:04:06;8.17;;;2.80;;
68050;SDS011;54839;51.364;7.246;2023-07-13T05:06:31;6.73;;;2.13;;
68050;SDS011;54839;51.364;7.246;2023-07-13T05:08:57;4.20;;;2.17;;
68050;SDS011;54839;51.364;7.246;2023-07-13T05:11:23;10.33;;;2.40;;
68050;SDS011;54839;51.364;7.246;2023-07-13T05:13:49;10.17;;;2.33;;
68050;SDS011;54839;51.364;7.246;2023-07-13T05:16:14;3.63;;;1.90;;
68050;SDS011;54839;51.364;7.246;2023-07-13T05:18:40;5.83;;;2.00;;
68050;SDS011;54839;51.364;7.246;2023-07-13T05:21:07;6.40;;;2.60;;
68050;SDS011;54839;51.364;7.246;2023-07-13T05:23:34;6.70;;;2.93;;
68050;SDS011;54839;51.364;7.246;2023-07-13T05:26:00;13.20;;;3.00;;
68050;SDS011;54839;51.364;7.246;2023-07-13T05:28:27;5.63;;;2.33;;
68050;SDS011;54839;51.364;7.246;2023-07-13T05:30:53;5.50;;;2.40;;
68050;SDS011;54839;51.364;7.246;2023-07-13T05:33:19;11.30;;;3.27;;
68050;SDS011;54839;51.364;7.246;2023-07-13T05:35:45;7.37;;;2.97;;
68050;SDS011;54839;51.364;7.246;2023-07-13T05:38:11;6.37;;;3.10;;
68050;SDS011;54839;51.364;7.246;2023-07-13T05:40:36;7.93;;;3.07;;
68050;SDS011;54839;51.364;7.246;2023-07-13T05:43:02;9.87;;;3.10;;
68050;SDS011;54839;51.364;7.246;2023-07-13T05:45:28;5.77;;;2.60;;
68050;SDS011;54839;51.364;7.246;2023-07-13T05:47:53;5.47;;;2.10;;
68050;SDS011;54839;51.364;7.246;2023-07-13T05:50:19;4.90;;;3.30;;
68050;SDS011;54839;51.364;7.246;2023-07-13T05:52:44;9.03;;;2.50;;
68050;SDS011;54839;51.364;7.246;2023-07-13T05:55:10;8.03;;;2.67;;
68050;SDS011;54839;51.364;7.246;2023-07-13T05:57:36;8.70;;;5.10;;
68050;SDS011;54839;51.364;7.246;2023-07-13T06:00:01;7.97;;;2.93;;
68050;SDS011;54839;51.364;7.246;2023-07-13T06:02:27;10.23;;;3.20;;
68050;SDS011;54839;51.364;7.246;2023-07-13T06:04:53;5.87;;;2.33;;
68050;SDS011;54839;51.364;7.246;2023-07-13T06:07:19;5.70;;;2.37;;
68050;SDS011;54839;51.364;7.246;2023-07-13T06:09:44;10.67;;;2.90;;
68050;SDS011;54839;51.364;7.246;2023-07-13T06:12:10;10.87;;;3.33;;
68050;SDS011;54839;51.364;7.246;2023-07-13T06:14:35;5.67;;;2.53;;
68050;SDS011;54839;51.364;7.246;2023-07-13T06:17:01;13.83;;;3.07;;
68050;SDS011;54839;51.364;7.246;2023-07-13T06:19:26;9.20;;;4.43;;
68050;SDS011;54839;51.364;7.246;2023-07-13T06:21:52;7.20;;;3.50;;
68050;SDS011;54839;51.364;7.246;2023-07-13T06:24:17;8.93;;;3.50;;
68050;SDS011;54839;51.364;7.246;2023-07-13T06:26:43;11.13;;;4.40;;
68050;SDS011;54839;51.364;7.246;2023-07-13T06:29:08;6.33;;;4.57;;
68050;SDS011;54839;51.364;7.246;2023-07-13T06:31:34;9.00;;;4.70;;
68050;SDS011;54839;51.364;7.246;2023-07-13T06:33:59;7.63;;;5.80;;
68050;SDS011;54839;51.364;7.246;2023-07-13T06:36:25;11.50;;;4.70;;
68050;SDS011;54839;51.364;7.246;2023-07-13T06:38:51;7.00;;;4.00;;
68050;SDS011;54839;51.364;7.246;2023-07-13T06:41:16;12.40;;;5.83;;
68050;SDS011;54839;51.364;7.246;2023-07-13T06:43:42;7.93;;;4.60;;
68050;SDS011;54839;51.364;7.246;2023-07-13T06:46:07;7.47;;;3.57;;
68050;SDS011;54839;51.364;7.246;2023-07-13T06:48:33;6.93;;;3.47;;
68050;SDS011;54839;51.364;7.246;2023-07-13T06:50:58;9.93;;;3.70;;
68050;SDS011;54839;51.364;7.246;2023-07-13T06:53:24;10.53;;;3.50;;
68050;SDS011;54839;51.364;7.246;2023-07-13T06:55:49;5.10;;;3.03;;
68050;SDS011;54839;51.364;7.246;2023-07-13T06:58:16;17.73;;;4.40;;
68050;SDS011;54839;51.364;7.246;2023-07-13T07:00:43;7.13;;;3.60;;
68050;SDS011;54839;51.364;7.246;2023-07-13T07:03:09;9.47;;;2.90;;
68050;SDS011;54839;51.364;7.246;2023-07-13T07:05:34;7.53;;;3.63;;
68050;SDS011;54839;51.364;7.246;2023-07-13T07:08:00;7.70;;;2.97;;
68050;SDS011;54839;51.364;7.246;2023-07-13T07:10:26;12.83;;;3.97;;
68050;SDS011;54839;51.364;7.246;2023-07-13T07:12:54;7.50;;;3.57;;
68050;SDS011;54839;51.364;7.246;2023-07-13T07:15:19;9.33;;;4.40;;
68050;SDS011;54839;51.364;7.246;2023-07-13T07:17:45;16.07;;;3.80;;
68050;SDS011;54839;51.364;7.246;2023-07-13T07:20:11;9.80;;;4.13;;
68050;SDS011;54839;51.364;7.246;2023-07-13T07:22:37;6.20;;;3.80;;
68050;SDS011;54839;51.364;7.246;2023-07-13T07:25:02;11.37;;;3.97;;
68050;SDS011;54839;51.364;7.246;2023-07-13T07:27:28;8.07;;;3.83;;
68050;SDS011;54839;51.364;7.246;2023-07-13T07:29:53;7.37;;;3.67;;
68050;SDS011;54839;51.364;7.246;2023-07-13T07:32:19;7.37;;;3.40;;
68050;SDS011;54839;51.364;7.246;2023-07-13T07:34:45;9.47;;;3.37;;
68050;SDS011;54839;51.364;7.246;2023-07-13T07:37:12;8.30;;;3.47;;
68050;SDS011;54839;51.364;7.246;2023-07-13T07:39:38;4.77;;;2.43;;
68050;SDS011;54839;51.364;7.246;2023-07-13T07:42:04;8.43;;;3.57;;
68050;SDS011;54839;51.364;7.246;2023-07-13T07:44:30;7.63;;;3.00;;
68050;SDS011;54839;51.364;7.246;2023-07-13T07:46:56;7.47;;;3.20;;
68050;SDS011;54839;51.364;7.246;2023-07-13T07:49:22;7.97;;;4.50;;
68050;SDS011;54839;51.364;7.246;2023-07-13T07:51:48;7.23;;;3.43;;
68050;SDS011;54839;51.364;7.246;2023-07-13T07:54:13;7.40;;;3.30;;
68050;SDS011;54839;51.364;7.246;2023-07-13T07:56:39;6.60;;;3.87;;
68050;SDS011;54839;51.364;7.246;2023-07-13T07:59:05;8.17;;;4.17;;
68050;SDS011;54839;51.364;7.246;2023-07-13T08:01:30;13.47;;;3.27;;
68050;SDS011;54839;51.364;7.246;2023-07-13T08:03:56;4.90;;;3.07;;
68050;SDS011;54839;51.364;7.246;2023-07-13T08:06:21;5.90;;;3.00;;
68050;SDS011;54839;51.364;7.246;2023-07-13T08:08:48;5.30;;;3.17;;
68050;SDS011;54839;51.364;7.246;2023-07-13T08:11:13;4.40;;;2.47;;
68050;SDS011;54839;51.364;7.246;2023-07-13T08:13:39;9.27;;;3.03;;
68050;SDS011;54839;51.364;7.246;2023-07-13T08:16:05;6.77;;;3.50;;
68050;SDS011;54839;51.364;7.246;2023-07-13T08:18:31;8.80;;;2.80;;
68050;SDS011;54839;51.364;7.246;2023-07-13T08:20:57;8.73;;;3.40;;
68050;SDS011;54839;51.364;7.246;2023-07-13T08:23:23;8.93;;;3.57;;
68050;SDS011;54839;51.364;7.246;2023-07-13T08:25:51;4.93;;;2.70;;
68050;SDS011;54839;51.364;7.246;2023-07-13T08:28:18;7.17;;;3.23;;
68050;SDS011;54839;51.364;7.246;2023-07-13T08:30:48;14.13;;;2.97;;
68050;SDS011;54839;51.364;7.246;2023-07-13T08:33:20;11.33;;;3.57;;
68050;SDS011;54839;51.364;7.246;2023-07-13T08:35:49;5.97;;;2.93;;
68050;SDS011;54839;51.364;7.246;2023-07-13T08:38:16;8.47;;;3.77;;
68050;SDS011;54839;51.364;7.246;2023-07-13T08:40:42;9.17;;;3.10;;
68050;SDS011;54839;51.364;7.246;2023-07-13T08:43:18;9.23;;;3.73;;
68050;SDS011;54839;51.364;7.246;2023-07-13T08:45:52;9.57;;;3.70;;
68050;SDS011;54839;51.364;7.246;2023-07-13T08:48:29;7.67;;;4.00;;
68050;SDS011;54839;51.364;7.246;2023-07-13T08:53:47;9.87;;;4.03;;
68050;SDS011;54839;51.364;7.246;2023-07-13T08:56:22;11.30;;;3.37;;
68050;SDS011;54839;51.364;7.246;2023-07-13T08:59:01;6.37;;;2.80;;
68050;SDS011;54839;51.364;7.246;2023-07-13T09:01:47;6.83;;;3.50;;
68050;SDS011;54839;51.364;7.246;2023-07-13T09:04:29;9.50;;;3.40;;
68050;SDS011;54839;51.364;7.246;2023-07-13T09:07:12;8.53;;;3.97;;
68050;SDS011;54839;51.364;7.246;2023-07-13T09:12:51;6.90;;;3.40;;
68050;SDS011;54839;51.364;7.246;2023-07-13T09:15:39;5.37;;;2.53;;
68050;SDS011;54839;51.364;7.246;2023-07-13T09:20:47;7.90;;;3.47;;
68050;SDS011;54839;51.364;7.246;2023-07-13T09:23:16;6.33;;;2.70;;
68050;SDS011;54839;51.364;7.246;2023-07-13T09:25:45;6.90;;;2.80;;
68050;SDS011;54839;51.364;7.246;2023-07-13T09:28:19;9.20;;;2.83;;
68050;SDS011;54839;51.364;7.246;2023-07-13T09:30:58;4.97;;;3.07;;
68050;SDS011;54839;51.364;7.246;2023-07-13T09:33:29;6.70;;;4.77;;
68050;SDS011;54839;51.364;7.246;2023-07-13T09:35:57;7.80;;;3.00;;
68050;SDS011;54839;51.364;7.246;2023-07-13T09:38:24;8.60;;;3.10;;
68050;SDS011;54839;51.364;7.246;2023-07-13T09:46:35;9.80;;;2.73;;
68050;SDS011;54839;51.364;7.246;2023-07-13T09:49:01;11.53;;;4.80;;
68050;SDS011;54839;51.364;7.246;2023-07-13T09:51:27;6.43;;;3.03;;
68050;SDS011;54839;51.364;7.246;2023-07-13T09:53:53;8.57;;;2.97;;
68050;SDS011;54839;51.364;7.246;2023-07-13T09:56:20;6.70;;;3.63;;
68050;SDS011;54839;51.364;7.246;2023-07-13T09:58:52;3.77;;;2.53;;
68050;SDS011;54839;51.364;7.246;2023-07-13T10:01:38;9.50;;;2.50;;
68050;SDS011;54839;51.364;7.246;2023-07-13T10:04:10;5.70;;;3.40;;
68050;SDS011;54839;51.364;7.246;2023-07-13T10:06:38;5.70;;;3.30;;
68050;SDS011;54839;51.364;7.246;2023-07-13T10:09:07;5.73;;;3.30;;
68050;SDS011;54839;51.364;7.246;2023-07-13T10:11:34;11.30;;;3.37;;
68050;SDS011;54839;51.364;7.246;2023-07-13T10:14:13;7.30;;;2.77;;
68050;SDS011;54839;51.364;7.246;2023-07-13T10:16:41;17.00;;;4.63;;
68050;SDS011;54839;51.364;7.246;2023-07-13T10:19:13;11.50;;;3.60;;
68050;SDS011;54839;51.364;7.246;2023-07-13T10:21:59;4.50;;;2.50;;
68050;SDS011;54839;51.364;7.246;2023-07-13T10:24:27;4.67;;;2.30;;
68050;SDS011;54839;51.364;7.246;2023-07-13T10:27:23;6.90;;;2.70;;
68050;SDS011;54839;51.364;7.246;2023-07-13T10:29:59;4.90;;;2.30;;
68050;SDS011;54839;51.364;7.246;2023-07-13T10:32:34;4.10;;;2.60;;
68050;SDS011;54839;51.364;7.246;2023-07-13T10:35:00;5.97;;;2.37;;
68050;SDS011;54839;51.364;7.246;2023-07-13T10:37:29;5.80;;;2.77;;
68050;SDS011;54839;51.364;7.246;2023-07-13T10:40:01;6.30;;;3.43;;
68050;SDS011;54839;51.364;7.246;2023-07-13T10:42:32;8.23;;;2.13;;
68050;SDS011;54839;51.364;7.246;2023-07-13T10:45:11;4.47;;;2.37;;
68050;SDS011;54839;51.364;7.246;2023-07-13T10:47:43;5.43;;;2.33;;
68050;SDS011;54839;51.364;7.246;2023-07-13T10:50:13;9.67;;;2.63;;
68050;SDS011;54839;51.364;7.246;2023-07-13T10:52:48;6.63;;;2.43;;
68050;SDS011;54839;51.364;7.246;2023-07-13T10:58:20;6.37;;;2.40;;
68050;SDS011;54839;51.364;7.246;2023-07-13T11:01:03;3.57;;;2.07;;
68050;SDS011;54839;51.364;7.246;2023-07-13T11:06:11;4.60;;;2.77;;
68050;SDS011;54839;51.364;7.246;2023-07-13T11:18:44;7.50;;;3.00;;
68050;SDS011;54839;51.364;7.246;2023-07-13T11:21:16;7.33;;;2.20;;
68050;SDS011;54839;51.364;7.246;2023-07-13T11:24:42;5.90;;;2.40;;
68050;SDS011;54839;51.364;7.246;2023-07-13T11:29:27;5.93;;;2.80;;
68050;SDS011;54839;51.364;7.246;2023-07-13T11:32:10;5.63;;;2.37;;
68050;SDS011;54839;51.364;7.246;2023-07-13T11:34:51;11.73;;;3.00;;
68050;SDS011;54839;51.364;7.246;2023-07-13T11:37:18;7.60;;;2.53;;
68050;SDS011;54839;51.364;7.246;2023-07-13T11:39:45;10.40;;;3.10;;
68050;SDS011;54839;51.364;7.246;2023-07-13T11:42:13;9.03;;;2.87;;
68050;SDS011;54839;51.364;7.246;2023-07-13T11:44:50;6.90;;;2.83;;
68050;SDS011;54839;51.364;7.246;2023-07-13T11:47:20;7.23;;;2.03;;
68050;SDS011;54839;51.364;7.246;2023-07-13T11:49:50;7.87;;;3.20;;
68050;SDS011;54839;51.364;7.246;2023-07-13T11:52:31;6.97;;;3.40;;
68050;SDS011;54839;51.364;7.246;2023-07-13T11:55:00;4.00;;;2.27;;
68050;SDS011;54839;51.364;7.246;2023-07-13T11:57:31;3.93;;;2.87;;
68050;SDS011;54839;51.364;7.246;2023-07-13T12:00:00;9.60;;;2.40;;
68050;SDS011;54839;51.364;7.246;2023-07-13T12:02:42;6.20;;;2.77;;
68050;SDS011;54839;51.364;7.246;2023-07-13T12:05:10;5.90;;;2.37;;
68050;SDS011;54839;51.364;7.246;2023-07-13T12:07:39;6.77;;;2.50;;
68050;SDS011;54839;51.364;7.246;2023-07-13T12:12:34;8.83;;;3.70;;
68050;SDS011;54839;51.364;7.246;2023-07-13T12:15:04;4.03;;;1.87;;
68050;SDS011;54839;51.364;7.246;2023-07-13T12:17:31;6.20;;;2.93;;
68050;SDS011;54839;51.364;7.246;2023-07-13T12:19:56;3.67;;;2.50;;
68050;SDS011;54839;51.364;7.246;2023-07-13T12:22:22;9.90;;;2.50;;
68050;SDS011;54839;51.364;7.246;2023-07-13T12:24:48;6.20;;;2.97;;
68050;SDS011;54839;51.364;7.246;2023-07-13T12:27:21;4.53;;;2.20;;
68050;SDS011;54839;51.364;7.246;2023-07-13T12:29:56;4.27;;;1.77;;
68050;SDS011;54839;51.364;7.246;2023-07-13T12:32:25;3.60;;;1.93;;
68050;SDS011;54839;51.364;7.246;2023-07-13T12:34:56;4.70;;;2.17;;
68050;SDS011;54839;51.364;7.246;2023-07-13T12:37:29;6.93;;;2.70;;
68050;SDS011;54839;51.364;7.246;2023-07-13T12:40:00;2.63;;;2.00;;
68050;SDS011;54839;51.364;7.246;2023-07-13T12:42:27;3.50;;;1.70;;
68050;SDS011;54839;51.364;7.246;2023-07-13T12:47:58;3.47;;;1.77;;
68050;SDS011;54839;51.364;7.246;2023-07-13T12:50:31;5.30;;;3.13;;
68050;SDS011;54839;51.364;7.246;2023-07-13T12:53:09;5.10;;;2.17;;
68050;SDS011;54839;51.364;7.246;2023-07-13T12:55:42;3.90;;;2.10;;
68050;SDS011;54839;51.364;7.246;2023-07-13T12:58:21;3.80;;;2.37;;
68050;SDS011;54839;51.364;7.246;2023-07-13T13:00:57;4.70;;;2.47;;
68050;SDS011;54839;51.364;7.246;2023-07-13T13:03:32;4.63;;;2.30;;
68050;SDS011;54839;51.364;7.246;2023-07-13T13:06:17;2.40;;;2.13;;
68050;SDS011;54839;51.364;7.246;2023-07-13T13:08:52;5.07;;;2.00;;
68050;SDS011;54839;51.364;7.246;2023-07-13T13:11:23;4.73;;;2.20;;
68050;SDS011;54839;51.364;7.246;2023-07-13T13:13:50;3.77;;;1.93;;
68050;SDS011;54839;51.364;7.246;2023-07-13T13:16:30;4.20;;;1.87;;
68050;SDS011;54839;51.364;7.246;2023-07-13T13:18:57;3.90;;;2.00;;
68050;SDS011;54839;51.364;7.246;2023-07-13T13:21:27;2.80;;;1.20;;
68050;SDS011;54839;51.364;7.246;2023-07-13T13:23:53;2.17;;;1.60;;
68050;SDS011;54839;51.364;7.246;2023-07-13T13:26:19;3.47;;;1.93;;
68050;SDS011;54839;51.364;7.246;2023-07-13T13:28:47;4.93;;;2.13;;
68050;SDS011;54839;51.364;7.246;2023-07-13T13:31:13;9.87;;;3.57;;
68050;SDS011;54839;51.364;7.246;2023-07-13T13:33:43;4.60;;;1.60;;
68050;SDS011;54839;51.364;7.246;2023-07-13T13:36:17;11.50;;;2.20;;
68050;SDS011;54839;51.364;7.246;2023-07-13T13:38:45;9.67;;;2.30;;
68050;SDS011;54839;51.364;7.246;2023-07-13T13:41:13;6.63;;;2.07;;
68050;SDS011;54839;51.364;7.246;2023-07-13T13:43:42;4.80;;;2.30;;
68050;SDS011;54839;51.364;7.246;2023-07-13T13:46:14;3.60;;;1.50;;
68050;SDS011;54839;51.364;7.246;2023-07-13T13:48:42;5.63;;;2.10;;
68050;SDS011;54839;51.364;7.246;2023-07-13T13:51:15;10.27;;;1.70;;
68050;SDS011;54839;51.364;7.246;2023-07-13T13:53:44;3.57;;;1.87;;
68050;SDS011;54839;51.364;7.246;2023-07-13T13:56:10;4.27;;;1.83;;
68050;SDS011;54839;51.364;7.246;2023-07-13T13:58:36;7.17;;;2.20;;
68050;SDS011;54839;51.364;7.246;2023-07-13T14:01:02;3.75;;;2.10;;
68050;SDS011;54839;51.364;7.246;2023-07-13T14:03:31;4.77;;;1.97;;
68050;SDS011;54839;51.364;7.246;2023-07-13T14:05:56;3.53;;;1.53;;
68050;SDS011;54839;51.364;7.246;2023-07-13T14:08:22;6.27;;;1.90;;
68050;SDS011;54839;51.364;7.246;2023-07-13T14:10:49;5.10;;;1.83;;
68050;SDS011;54839;51.364;7.246;2023-07-13T14:13:17;6.37;;;2.97;;
68050;SDS011;54839;51.364;7.246;2023-07-13T14:15:51;3.30;;;2.40;;
68050;SDS011;54839;51.364;7.246;2023-07-13T14:18:17;3.10;;;2.73;;
68050;SDS011;54839;51.364;7.246;2023-07-13T14:20:46;5.17;;;2.20;;
68050;SDS011;54839;51.364;7.246;2023-07-13T14:23:14;3.03;;;1.80;;
68050;SDS011;54839;51.364;7.246;2023-07-13T14:25:40;4.20;;;2.10;;
68050;SDS011;54839;51.364;7.246;2023-07-13T14:28:28;2.80;;;1.77;;
68050;SDS011;54839;51.364;7.246;2023-07-13T14:30:54;4.20;;;2.90;;
68050;SDS011;54839;51.364;7.246;2023-07-13T14:33:21;4.23;;;2.50;;
68050;SDS011;54839;51.364;7.246;2023-07-13T14:35:46;5.50;;;2.73;;
68050;SDS011;54839;51.364;7.246;2023-07-13T14:38:19;3.50;;;2.80;;
68050;SDS011;54839;51.364;7.246;2023-07-13T14:40:45;6.20;;;3.60;;
68050;SDS011;54839;51.364;7.246;2023-07-13T14:43:12;3.10;;;2.40;;
68050;SDS011;54839;51.364;7.246;2023-07-13T14:45:42;4.17;;;2.90;;
68050;SDS011;54839;51.364;7.246;2023-07-13T14:48:21;4.63;;;3.03;;
68050;SDS011;54839;51.364;7.246;2023-07-13T14:50:51;3.60;;;2.73;;
68050;SDS011;54839;51.364;7.246;2023-07-13T14:53:19;3.40;;;2.70;;
68050;SDS011;54839;51.364;7.246;2023-07-13T14:55:45;4.60;;;2.23;;
68050;SDS011;54839;51.364;7.246;2023-07-13T14:58:11;3.77;;;2.60;;
68050;SDS011;54839;51.364;7.246;2023-07-13T15:00:38;4.10;;;2.20;;
68050;SDS011;54839;51.364;7.246;2023-07-13T15:03:05;4.40;;;2.40;;
68050;SDS011;54839;51.364;7.246;2023-07-13T15:05:39;6.00;;;2.93;;
68050;SDS011;54839;51.364;7.246;2023-07-13T15:08:05;3.60;;;2.27;;
68050;SDS011;54839;51.364;7.246;2023-07-13T15:10:32;4.47;;;3.10;;
68050;SDS011;54839;51.364;7.246;2023-07-13T15:13:17;5.47;;;2.73;;
68050;SDS011;54839;51.364;7.246;2023-07-13T15:15:49;4.03;;;2.37;;
68050;SDS011;54839;51.364;7.246;2023-07-13T15:18:17;3.93;;;3.27;;
68050;SDS011;54839;51.364;7.246;2023-07-13T15:20:46;4.67;;;2.20;;
68050;SDS011;54839;51.364;7.246;2023-07-13T15:23:13;6.53;;;2.63;;
68050;SDS011;54839;51.364;7.246;2023-07-13T15:25:41;7.00;;;2.97;;
68050;SDS011;54839;51.364;7.246;2023-07-13T15:28:07;3.70;;;3.33;;
68050;SDS011;54839;51.364;7.246;2023-07-13T15:30:38;6.07;;;3.17;;
68050;SDS011;54839;51.364;7.246;2023-07-13T15:33:09;6.80;;;3.27;;